Latest Weather Observations for Hay Point

IDQ60801

Issued at 3:35 am EST Friday 22 August 2014 (issued every 30 minutes, with the page automatically refreshed every 10 minutes)

About weather observations | Map of weather stations | Latest weather observations for QLD | Other Formats
Station Details ID: 033317 Name: HAY POINT Lat: -21.29 Lon: 149.30 Height: 7.0 m
Data from the previous 72 hours. | See also: Recent months for locations in Queensland
Date/Time
EST
Temp
°C
App
Temp
°C
Dew
Point
Rel
Hum
%
Delta-T
°C
Wind Press
QNH
hPa
Press
MSL
hPa
Rain
since 9 am
mm
Dir
 
Spd
km/h
Gust
km/h
Spd
kts
Gust
kts
22/03:30am - - - - - SSW 20 26 11 14 - - -
22/03:00am - - - - - SSW 20 26 11 14 - - -
22/02:30am - - - - - SSW 19 28 10 15 - - -
22/02:00am - - - - - SSW 20 26 11 14 - - -
22/01:30am - - - - - SSE 28 35 15 19 - - -
22/01:00am - - - - - SSE 30 37 16 20 - - -
22/12:30am - - - - - S 20 28 11 15 - - -
22/12:00am - - - - - S 22 26 12 14 - - -
 
Date/Time
EST
Temp
°C
App
Temp
°C
Dew
Point
Rel
Hum
%
Delta-T
°C
Wind Press
QNH
hPa
Press
MSL
hPa
Rain
since 9 am
mm
Dir
 
Spd
km/h
Gust
km/h
Spd
kts
Gust
kts
21/11:30pm - - - - - SE 32 39 17 21 - - -
21/11:00pm - - - - - SE 30 37 16 20 - - -
21/10:30pm - - - - - SE 24 33 13 18 - - -
21/10:00pm - - - - - SE 19 24 10 13 - - -
21/09:30pm - - - - - ESE 17 22 9 12 - - -
21/09:00pm - - - - - ESE 17 19 9 10 - - -
21/08:30pm - - - - - E 15 17 8 9 - - -
21/08:00pm - - - - - E 17 17 9 9 - - -
21/07:30pm - - - - - E 17 19 9 10 - - -
21/07:00pm - - - - - E 17 20 9 11 - - -
21/06:30pm - - - - - E 17 19 9 10 - - -
21/06:00pm - - - - - E 17 19 9 10 - - -
21/05:30pm - - - - - E 17 19 9 10 - - -
21/05:00pm - - - - - ESE 17 19 9 10 - - -
21/04:30pm - - - - - ESE 17 20 9 11 - - -
21/04:00pm - - - - - SE 17 22 9 12 - - -
21/03:30pm - - - - - ESE 19 22 10 12 - - -
21/03:00pm - - - - - ESE 17 22 9 12 - - -
21/02:30pm - - - - - SSE 15 24 8 13 - - -
21/02:00pm - - - - - SSE 19 28 10 15 - - -
21/01:30pm - - - - - SSE 17 22 9 12 - - -
21/01:00pm - - - - - SSE 19 22 10 12 - - -
21/12:30pm - - - - - SSE 19 26 10 14 - - -
21/12:00pm - - - - - SSE 20 28 11 15 - - -
21/11:30am - - - - - SSE 26 30 14 16 - - -
21/11:00am - - - - - S 26 32 14 17 - - -
21/10:30am - - - - - S 24 30 13 16 - - -
21/10:00am - - - - - S 19 26 10 14 - - -
21/09:30am - - - - - S 17 24 9 13 - - -
21/09:00am - - - - - S 19 24 10 13 - - -
21/08:30am - - - - - SSW 15 20 8 11 - - -
21/08:00am - - - - - SSW 17 20 9 11 - - -
21/07:30am - - - - - SW 15 19 8 10 - - -
21/07:00am - - - - - SW 15 17 8 9 - - -
21/06:30am - - - - - SW 15 17 8 9 - - -
21/06:00am - - - - - SW 15 17 8 9 - - -
21/05:30am - - - - - SW 11 13 6 7 - - -
21/05:00am - - - - - SW 13 17 7 9 - - -
21/04:30am - - - - - SW 13 17 7 9 - - -
21/04:00am - - - - - SW 13 15 7 8 - - -
21/03:30am - - - - - SW 13 15 7 8 - - -
21/03:00am - - - - - SW 13 15 7 8 - - -
21/02:30am - - - - - SSW 13 15 7 8 - - -
21/02:00am - - - - - SSW 11 13 6 7 - - -
21/01:30am - - - - - SSW 13 17 7 9 - - -
21/01:00am - - - - - SW 15 17 8 9 - - -
21/12:30am - - - - - SW 13 17 7 9 - - -
21/12:00am - - - - - SW 15 19 8 10 - - -
 
Date/Time
EST
Temp
°C
App
Temp
°C
Dew
Point
Rel
Hum
%
Delta-T
°C
Wind Press
QNH
hPa
Press
MSL
hPa
Rain
since 9 am
mm
Dir
 
Spd
km/h
Gust
km/h
Spd
kts
Gust
kts
20/11:30pm - - - - - ENE 15 17 8 9 - - -
20/11:00pm - - - - - ENE 15 17 8 9 - - -
20/10:30pm - - - - - E 17 19 9 10 - - -
20/10:00pm - - - - - ENE 19 24 10 13 - - -
20/09:30pm - - - - - ENE 19 22 10 12 - - -
20/09:00pm - - - - - ENE 20 24 11 13 - - -
20/08:30pm - - - - - ENE 20 24 11 13 - - -
20/08:00pm - - - - - ENE 17 19 9 10 - - -
20/07:30pm - - - - - ENE 17 20 9 11 - - -
20/07:00pm - - - - - ENE 17 19 9 10 - - -
20/06:30pm - - - - - E 17 19 9 10 - - -
20/06:00pm - - - - - ENE 19 20 10 11 - - -
20/05:30pm - - - - - E 20 24 11 13 - - -
20/05:00pm - - - - - E 24 28 13 15 - - -
20/04:30pm - - - - - E 24 26 13 14 - - -
20/04:00pm - - - - - E 24 28 13 15 - - -
20/03:30pm - - - - - E 22 26 12 14 - - -
20/03:00pm - - - - - ESE 22 26 12 14 - - -
20/02:30pm - - - - - SE 20 26 11 14 - - -
20/02:00pm - - - - - SE 22 28 12 15 - - -
20/01:30pm - - - - - SSE 19 26 10 14 - - -
20/01:00pm - - - - - SSE 24 30 13 16 - - -
20/12:30pm - - - - - S 24 28 13 15 - - -
20/12:00pm - - - - - S 26 30 14 16 - - -
20/11:30am - - - - - SSE 26 30 14 16 - - -
20/11:00am - - - - - SSE 26 30 14 16 - - -
20/10:30am - - - - - S 26 33 14 18 - - -
20/10:00am - - - - - S 22 30 12 16 - - -
20/09:30am - - - - - S 20 28 11 15 - - -
20/09:00am - - - - - S 24 30 13 16 - - -
20/08:30am - - - - - S 26 33 14 18 - - -
20/08:00am - - - - - SSW 22 28 12 15 - - -
20/07:30am - - - - - SSW 20 26 11 14 - - -
20/07:00am - - - - - SSW 24 28 13 15 - - -
20/06:30am - - - - - SW 17 22 9 12 - - -
20/06:00am - - - - - SSW 17 20 9 11 - - -
20/05:30am - - - - - SW 13 17 7 9 - - -
20/05:00am - - - - - SSW 15 20 8 11 - - -
20/04:30am - - - - - SW 15 19 8 10 - - -
20/04:00am - - - - - W 15 17 8 9 - - -
20/03:30am - - - - - W 13 15 7 8 - - -
20/03:00am - - - - - WSW 15 17 8 9 - - -
20/02:30am - - - - - W 11 13 6 7 - - -
20/02:00am - - - - - W 11 15 6 8 - - -
20/01:30am - - - - - W 9 11 5 6 - - -
20/01:00am - - - - - W 7 9 4 5 - - -
20/12:30am - - - - - W 9 11 5 6 - - -
20/12:00am - - - - - W 11 13 6 7 - - -
 
Date/Time
EST
Temp
°C
App
Temp
°C
Dew
Point
Rel
Hum
%
Delta-T
°C
Wind Press
QNH
hPa
Press
MSL
hPa
Rain
since 9 am
mm
Dir
 
Spd
km/h
Gust
km/h
Spd
kts
Gust
kts
19/11:30pm - - - - - WSW 13 17 7 9 - - -
19/11:00pm - - - - - W 15 19 8 10 - - -
19/10:30pm - - - - - W 15 17 8 9 - - -
19/10:00pm - - - - - W 13 15 7 8 - - -
19/09:30pm - - - - - WSW 11 11 6 6 - - -
19/09:00pm - - - - - WSW 9 11 5 6 - - -
19/08:30pm - - - - - WSW 7 9 4 5 - - -
19/08:00pm - - - - - WSW 7 7 4 4 - - -
19/07:30pm - - - - - WNW 4 7 2 4 - - -
19/07:00pm - - - - - N 6 9 3 5 - - -
19/06:30pm - - - - - NNE 9 13 5 7 - - -
19/06:00pm - - - - - NE 11 15 6 8 - - -
19/05:30pm - - - - - ENE 13 17 7 9 - - -
19/05:00pm - - - - - ENE 15 17 8 9 - - -
19/04:30pm - - - - - ENE 15 19 8 10 - - -
19/04:00pm - - - - - E 15 19 8 10 - - -
19/03:30pm - - - - - E 15 19 8 10 - - -
19/03:00pm - - - - - ESE 15 19 8 10 - - -
19/02:30pm - - - - - E 19 24 10 13 - - -
19/02:00pm - - - - - E 17 20 9 11 - - -
19/01:30pm - - - - - E 17 20 9 11 - - -
19/01:00pm - - - - - E 17 19 9 10 - - -
19/12:30pm - - - - - E 22 26 12 14 - - -
19/12:00pm - - - - - ESE 20 24 11 13 - - -
19/11:30am - - - - - ESE 17 22 9 12 - - -
19/11:00am - - - - - SSE 17 24 9 13 - - -
19/10:30am - - - - - SSE 20 26 11 14 - - -
19/10:00am - - - - - S 17 20 9 11 - - -
19/09:30am - - - - - SSW 17 20 9 11 - - -
19/09:00am - - - - - SSW 19 26 10 14 - - -
19/08:30am - - - - - SW 11 15 6 8 - - -
19/08:00am - - - - - SW 15 19 8 10 - - -
19/07:30am - - - - - SW 13 17 7 9 - - -
19/07:00am - - - - - SW 11 13 6 7 - - -
19/06:30am - - - - - SW 9 9 5 5 - - -
19/06:00am - - - - - WSW 9 13 5 7 - - -
19/05:30am - - - - - SW 9 13 5 7 - - -
19/05:00am - - - - - SW 11 13 6 7 - - -
19/04:30am - - - - - WSW 7 9 4 5 - - -
19/04:00am - - - - - WSW 4 7 2 4 - - -

Other Formats:

Comma delimited format used in spreadsheet applications
http://www.bom.gov.au/fwo/IDQ60801/IDQ60801.99367.axf

JavaScript Object Notation format (JSON) in row-major order
http://www.bom.gov.au/fwo/IDQ60801/IDQ60801.99367.json